Time;durP1;ratioP1;P1;durP2;ratioP2;P2;SDS_P1;SDS_P2;PMS_P1;PMS_P2;Temp;Humidity;BMP_temperature;BMP_pressure;BME280_temperature;BME280_humidity;BME280_pressure;Samples;Min_cycle;Max_cycle;Signal;HPM_P1;HPM_P2
2022/09/25 00:00:42;;;;;;;6.57;5.68;;;12.50;99.90;;;;;;6278410;22;20175;-86
2022/09/25 00:03:09;;;;;;;5.85;5.07;;;12.50;99.90;;;;;;6278014;22;20159;-86
2022/09/25 00:05:36;;;;;;;8.27;5.53;;;12.50;99.90;;;;;;6276273;22;20148;-85
2022/09/25 00:08:03;;;;;;;11.93;7.75;;;12.40;99.90;;;;;;6277003;22;20242;-86
2022/09/25 00:10:29;;;;;;;15.88;8.40;;;;;;;;;;6277519;22;20613;-86
2022/09/25 00:12:55;;;;;;;14.70;8.97;;;;;;;;;;6280799;22;20147;-85
2022/09/25 00:15:21;;;;;;;15.82;11.60;;;;;;;;;;6279542;22;20428;-85
2022/09/25 00:17:47;;;;;;;18.00;13.18;;;;;;;;;;6279093;22;20171;-85
2022/09/25 00:20:16;;;;;;;18.23;13.80;;;12.30;99.90;;;;;;6277871;22;20177;-86
2022/09/25 00:22:42;;;;;;;21.23;14.38;;;;;;;;;;6281072;22;20366;-85
2022/09/25 00:25:14;;;;;;;21.83;14.90;;;12.40;99.90;;;;;;6281449;22;20160;-85
2022/09/25 00:27:41;;;;;;;16.17;13.18;;;12.50;99.90;;;;;;6275807;22;20403;-86
2022/09/25 00:30:07;;;;;;;16.83;12.65;;;12.40;99.90;;;;;;6277935;22;20247;-86
2022/09/25 00:32:33;;;;;;;16.92;11.82;;;;;;;;;;6279957;22;20144;-86
2022/09/25 00:34:59;;;;;;;16.57;11.23;;;;;;;;;;6280697;22;20625;-86
2022/09/25 00:37:27;;;;;;;24.60;13.77;;;;;;;;;;6279079;22;20668;-85
2022/09/25 00:39:53;;;;;;;16.90;11.90;;;;;;;;;;6278713;22;20179;-86
2022/09/25 00:42:20;;;;;;;21.38;12.07;;;11.80;99.90;;;;;;6278491;22;20162;-84
2022/09/25 00:44:55;;;;;;;15.80;11.30;;;12.00;99.90;;;;;;6279165;22;20140;-87
2022/09/25 00:47:26;;;;;;;13.02;10.98;;;12.10;99.90;;;;;;6266977;22;20167;-86
2022/09/25 00:49:55;;;;;;;17.40;7.97;;;11.90;99.90;;;;;;6280309;22;20153;-87
2022/09/25 00:52:22;;;;;;;9.60;7.45;;;12.40;99.90;;;;;;6289175;22;20151;-86
2022/09/25 00:54:52;;;;;;;11.90;7.28;;;12.40;99.90;;;;;;6292033;22;20333;-86
2022/09/25 00:57:21;;;;;;;8.45;6.43;;;12.50;99.90;;;;;;6281830;22;20172;-86
2022/09/25 00:59:53;;;;;;;11.63;6.97;;;12.50;99.90;;;;;;6277292;22;20167;-85
2022/09/25 01:02:25;;;;;;;9.15;6.78;;;12.70;99.90;;;;;;6273152;22;20171;-86
2022/09/25 01:04:51;;;;;;;7.25;5.35;;;;;;;;;;6275521;22;20151;-87
2022/09/25 01:07:18;;;;;;;7.32;5.55;;;12.80;99.90;;;;;;6273662;22;20170;-87
2022/09/25 01:09:45;;;;;;;7.15;5.85;;;;;;;;;;6277619;22;20610;-86
2022/09/25 01:12:11;;;;;;;8.30;7.40;;;;;;;;;;6289787;22;20164;-85
2022/09/25 01:14:38;;;;;;;12.68;6.85;;;12.60;99.90;;;;;;6286528;22;20605;-86
2022/09/25 01:17:25;;;;;;;12.18;8.02;;;12.50;99.90;;;;;;6282908;22;20168;-86
2022/09/25 01:20:17;;;;;;;11.40;8.00;;;12.40;99.90;;;;;;6279095;22;20176;-86
2022/09/25 01:23:09;;;;;;;13.00;8.90;;;12.40;99.90;;;;;;6277848;22;20203;-85
2022/09/25 01:25:54;;;;;;;11.23;8.02;;;12.30;99.90;;;;;;6281195;22;20184;-86
2022/09/25 01:28:42;;;;;;;9.68;6.90;;;12.30;99.90;;;;;;6276030;22;20128;-86
2022/09/25 01:31:16;;;;;;;14.15;7.32;;;12.30;99.90;;;;;;6265764;22;20266;-86
2022/09/25 01:33:54;;;;;;;11.52;7.60;;;12.30;99.90;;;;;;6268473;22;20186;-87
2022/09/25 01:36:35;;;;;;;8.25;6.43;;;12.40;99.90;;;;;;6275991;22;20167;-85
2022/09/25 01:39:17;;;;;;;9.98;6.03;;;12.30;99.90;;;;;;6269977;22;20908;-84
2022/09/25 01:41:57;;;;;;;9.43;6.70;;;12.30;99.90;;;;;;6275369;22;20688;-86
2022/09/25 01:44:35;;;;;;;7.88;6.53;;;12.50;99.90;;;;;;6275712;22;20132;-85
2022/09/25 01:47:13;;;;;;;9.00;6.28;;;12.60;99.90;;;;;;6278335;22;20168;-85
2022/09/25 01:49:47;;;;;;;9.00;6.50;;;12.70;99.90;;;;;;6279365;22;20236;-85
2022/09/25 01:52:24;;;;;;;11.93;6.45;;;12.80;99.90;;;;;;6276731;22;20144;-85
2022/09/25 01:54:59;;;;;;;8.80;5.63;;;12.90;99.90;;;;;;6275860;22;20157;-86
2022/09/25 01:57:33;;;;;;;8.73;5.32;;;13.00;99.90;;;;;;6281414;22;20171;-86
2022/09/25 02:00:14;;;;;;;8.02;5.82;;;13.10;99.90;;;;;;6279060;22;20267;-85
2022/09/25 02:02:48;;;;;;;7.75;5.60;;;13.10;99.90;;;;;;6275849;22;20504;-85
2022/09/25 02:05:20;;;;;;;8.48;6.50;;;13.20;99.90;;;;;;6277607;22;20141;-85
2022/09/25 02:08:04;;;;;;;10.75;6.70;;;13.10;99.90;;;;;;6278420;22;20168;-85
2022/09/25 02:10:35;;;;;;;7.47;5.72;;;13.20;99.90;;;;;;6280028;22;20142;-86
2022/09/25 02:13:09;;;;;;;12.07;6.45;;;13.10;99.90;;;;;;6275086;22;20149;-86
2022/09/25 02:15:57;;;;;;;10.60;6.35;;;13.10;99.90;;;;;;6282577;22;20202;-86
2022/09/25 02:21:24;;;;;;;10.10;8.50;;;13.10;99.90;;;;;;6282075;22;20178;-84
2022/09/25 02:24:08;;;;;;;10.40;8.90;;;13.20;99.90;;;;;;6279992;22;20128;-88
2022/09/25 02:26:36;;;;;;;14.23;8.50;;;;;;;;;;6280597;22;20731;-87
2022/09/25 02:29:02;;;;;;;14.20;9.07;;;;;;;;;;6277474;22;20159;-87
2022/09/25 02:31:40;;;;;;;13.23;9.50;;;13.20;99.90;;;;;;6277316;22;20155;-87
2022/09/25 02:34:06;;;;;;;11.05;8.80;;;13.20;99.90;;;;;;6278867;22;20350;-87
2022/09/25 02:36:32;;;;;;;12.40;9.97;;;;;;;;;;6281468;22;20168;-86
2022/09/25 02:39:00;;;;;;;12.98;9.68;;;13.10;99.90;;;;;;6279180;22;20183;-87
2022/09/25 02:41:44;;;;;;;19.02;11.38;;;13.00;99.90;;;;;;6280352;22;20187;-87
2022/09/25 02:44:34;;;;;;;20.02;11.55;;;13.00;99.90;;;;;;6280187;22;20144;-88
2022/09/25 02:47:17;;;;;;;17.55;12.77;;;13.00;99.90;;;;;;6276844;22;20164;-86
2022/09/25 02:50:30;;;;;;;15.15;11.50;;;13.30;99.90;;;;;;6288732;22;20156;-86
2022/09/25 02:53:15;;;;;;;16.73;12.57;;;13.10;99.90;;;;;;6210541;22;20238;-86
2022/09/25 02:55:58;;;;;;;19.55;12.35;;;13.20;99.90;;;;;;6276453;22;20570;-86
2022/09/25 02:58:33;;;;;;;17.40;11.10;;;13.20;99.90;;;;;;6276799;22;20205;-87
2022/09/25 03:01:02;;;;;;;13.75;9.43;;;13.20;99.90;;;;;;6278990;22;20211;-86
2022/09/25 03:03:28;;;;;;;18.90;10.60;;;;;;;;;;6277678;22;20708;-86
2022/09/25 03:05:57;;;;;;;20.75;11.82;;;13.20;99.90;;;;;;6279279;22;20147;-87
2022/09/25 03:08:37;;;;;;;17.63;11.70;;;13.20;99.90;;;;;;6276823;22;20144;-87
2022/09/25 03:11:05;;;;;;;19.15;12.10;;;13.10;99.90;;;;;;6278993;22;20163;-85
2022/09/25 03:13:33;;;;;;;20.13;12.75;;;;;;;;;;6283003;22;20144;-86
2022/09/25 03:16:07;;;;;;;16.00;11.63;;;13.10;99.90;;;;;;6291666;22;20150;-86
2022/09/25 03:18:33;;;;;;;18.63;12.25;;;;;;;;;;6280859;22;20221;-86
2022/09/25 03:20:59;;;;;;;23.20;12.80;;;;;;;;;;6277354;22;20611;-86
2022/09/25 03:23:25;;;;;;;18.10;12.32;;;;;;;;;;6275773;22;20136;-86
2022/09/25 03:25:54;;;;;;;18.42;13.10;;;13.20;99.90;;;;;;6275747;22;20162;-85
2022/09/25 03:28:21;;;;;;;17.17;12.65;;;13.20;99.90;;;;;;6279127;22;20203;-86
2022/09/25 03:30:58;;;;;;;18.88;12.45;;;13.20;99.90;;;;;;6276791;22;20255;-86
2022/09/25 03:33:25;;;;;;;17.10;12.23;;;13.20;99.90;;;;;;6277118;22;20158;-85
2022/09/25 03:36:22;;;;;;;14.98;10.65;;;13.20;99.90;;;;;;6277533;22;20151;-86
2022/09/25 03:38:49;;;;;;;21.80;12.75;;;13.20;99.90;;;;;;6257753;22;20140;-86
2022/09/25 03:41:19;;;;;;;19.70;13.23;;;13.10;99.90;;;;;;6284865;22;20206;-85
2022/09/25 03:43:48;;;;;;;26.98;16.20;;;;;;;;;;6278133;22;20155;-86
2022/09/25 03:46:14;;;;;;;25.58;14.98;;;12.90;99.90;;;;;;6279194;22;20292;-85
2022/09/25 03:48:40;;;;;;;21.80;15.23;;;12.80;99.90;;;;;;6281220;22;20753;-86
2022/09/25 03:51:07;;;;;;;21.52;13.85;;;;;;;;;;6281296;22;20155;-85
2022/09/25 03:53:33;;;;;;;21.25;12.07;;;;;;;;;;6279177;22;20155;-85
2022/09/25 03:56:11;;;;;;;24.63;13.00;;;12.80;99.90;;;;;;6295255;22;20152;-85
2022/09/25 03:58:37;;;;;;;18.50;12.07;;;;;;;;;;6293960;22;20428;-85
2022/09/25 04:01:04;;;;;;;19.20;12.05;;;12.50;99.90;;;;;;6287327;22;20167;-85
2022/09/25 04:03:32;;;;;;;17.67;11.93;;;12.80;99.90;;;;;;6285277;22;20719;-86
2022/09/25 04:05:59;;;;;;;17.92;11.75;;;12.90;99.90;;;;;;6280312;22;20274;-86
2022/09/25 04:08:27;;;;;;;19.77;10.90;;;12.80;99.90;;;;;;6281503;22;20942;-85
2022/09/25 04:10:58;;;;;;;22.90;12.73;;;12.80;99.90;;;;;;6282579;22;20155;-86
2022/09/25 04:13:28;;;;;;;22.10;11.65;;;12.80;99.90;;;;;;6277214;22;20144;-86
2022/09/25 04:15:55;;;;;;;17.27;11.32;;;;;;;;;;6278858;22;20128;-86
2022/09/25 04:18:21;;;;;;;16.80;11.40;;;;;;;;;;6278003;22;20206;-87
2022/09/25 04:20:46;;;;;;;18.97;11.70;;;;;;;;;;6280946;22;20799;-86
2022/09/25 04:23:12;;;;;;;18.97;12.03;;;;;;;;;;6274824;22;20371;-85
2022/09/25 04:25:38;;;;;;;16.23;10.90;;;;;;;;;;6274650;22;20379;-86
2022/09/25 04:28:06;;;;;;;16.80;10.53;;;;;;;;;;6274693;22;20733;-87
2022/09/25 04:30:32;;;;;;;22.40;13.82;;;13.10;99.90;;;;;;6276325;22;20371;-86
2022/09/25 04:35:43;;;;;;;30.25;17.15;;;;;;;;;;6272781;22;20170;-87
2022/09/25 04:38:10;;;;;;;25.83;15.85;;;;;;;;;;6269649;22;20278;-86
2022/09/25 04:40:36;;;;;;;28.27;17.30;;;;;;;;;;6270420;22;20214;-85
2022/09/25 04:43:04;;;;;;;26.17;13.50;;;12.70;99.90;;;;;;6270359;22;20598;-85
2022/09/25 04:45:30;;;;;;;17.83;12.95;;;;;;;;;;6274640;22;20143;-86
2022/09/25 04:47:58;;;;;;;23.63;14.40;;;12.90;99.90;;;;;;6272762;22;20159;-86
2022/09/25 04:50:25;;;;;;;21.08;14.23;;;13.00;99.90;;;;;;6274235;22;20371;-86
2022/09/25 04:52:51;;;;;;;40.80;22.65;;;13.00;99.90;;;;;;6273485;22;20738;-85
2022/09/25 04:55:23;;;;;;;32.85;20.35;;;13.00;99.90;;;;;;6277427;22;20222;-86
2022/09/25 04:57:55;;;;;;;30.52;16.65;;;12.90;99.90;;;;;;6287465;22;20183;-85
2022/09/25 05:00:23;;;;;;;22.33;13.88;;;12.90;99.90;;;;;;6293987;22;20214;-86
2022/09/25 05:02:49;;;;;;;31.45;21.90;;;;;;;;;;6293989;22;20174;-86
2022/09/25 05:05:15;;;;;;;25.40;16.23;;;;;;;;;;6277051;22;20151;-86
2022/09/25 05:07:54;;;;;;;27.52;17.83;;;12.90;99.90;;;;;;6269474;22;20740;-86
2022/09/25 05:10:20;;;;;;;29.00;17.00;;;12.70;99.90;;;;;;6273027;22;20976;-86
2022/09/25 05:12:47;;;;;;;34.35;18.73;;;;;;;;;;6271991;22;20178;-85
2022/09/25 05:15:13;;;;;;;32.50;17.98;;;12.60;99.90;;;;;;6271543;22;20492;-86
2022/09/25 05:17:39;;;;;;;26.27;18.48;;;;;;;;;;6272334;22;20172;-86
2022/09/25 05:20:05;;;;;;;29.00;18.80;;;;;;;;;;6268413;22;20223;-86
2022/09/25 05:22:31;;;;;;;30.90;19.10;;;;;;;;;;6268597;22;20366;-86
2022/09/25 05:24:57;;;;;;;30.47;19.07;;;;;;;;;;6274088;22;20182;-86
2022/09/25 05:27:23;;;;;;;28.83;18.60;;;;;;;;;;6266690;22;20395;-86
2022/09/25 05:29:49;;;;;;;30.83;19.23;;;;;;;;;;6267738;22;20443;-85
2022/09/25 05:32:17;;;;;;;33.60;17.30;;;;;;;;;;6265545;22;20367;-86
2022/09/25 05:34:43;;;;;;;29.13;18.80;;;;;;;;;;6271441;22;20132;-86
2022/09/25 05:37:09;;;;;;;38.00;18.63;;;;;;;;;;6270765;22;20163;-85
2022/09/25 05:39:35;;;;;;;28.80;16.70;;;;;;;;;;6270998;22;20421;-86
2022/09/25 05:42:02;;;;;;;27.07;18.10;;;;;;;;;;6271142;22;20390;-86
2022/09/25 05:44:28;;;;;;;32.60;20.02;;;;;;;;;;6271344;22;20383;-86
2022/09/25 05:46:55;;;;;;;30.70;20.67;;;;;;;;;;6264921;22;20239;-85
2022/09/25 05:49:22;;;;;;;26.15;19.15;;;12.60;99.90;;;;;;6259170;22;20378;-86
2022/09/25 05:51:48;;;;;;;30.40;19.30;;;;;;;;;;6264910;22;20123;-86
2022/09/25 05:54:14;;;;;;;30.55;18.05;;;;;;;;;;6265592;22;20873;-85
2022/09/25 05:56:40;;;;;;;29.60;18.87;;;;;;;;;;6263793;22;20195;-86
2022/09/25 05:59:06;;;;;;;30.88;17.83;;;;;;;;;;6268641;22;20374;-86
2022/09/25 06:01:32;;;;;;;36.87;18.30;;;;;;;;;;6266260;22;20172;-85
2022/09/25 06:03:58;;;;;;;27.17;17.80;;;;;;;;;;6270073;22;20363;-85
2022/09/25 06:06:24;;;;;;;25.00;16.00;;;;;;;;;;6266595;22;20389;-86
2022/09/25 06:08:50;;;;;;;32.65;19.40;;;;;;;;;;6263458;22;21198;-85
2022/09/25 06:11:16;;;;;;;35.07;17.60;;;;;;;;;;6266895;22;20218;-85
2022/09/25 06:13:45;;;;;;;30.40;18.00;;;;;;;;;;6264364;22;20413;-86
2022/09/25 06:16:18;;;;;;;27.25;16.25;;;13.10;99.90;;;;;;6263986;22;20366;-86
2022/09/25 06:18:44;;;;;;;27.95;17.13;;;;;;;;;;6268076;22;20144;-85
2022/09/25 06:21:10;;;;;;;27.90;17.85;;;;;;;;;;6267905;22;20252;-86
2022/09/25 06:23:36;;;;;;;27.73;18.20;;;;;;;;;;6281607;22;20148;-85
2022/09/25 06:26:03;;;;;;;25.73;15.40;;;13.10;99.90;;;;;;6285859;22;20402;-85
2022/09/25 06:28:29;;;;;;;25.67;15.05;;;;;;;;;;6271034;22;20382;-85
2022/09/25 06:30:55;;;;;;;23.48;16.00;;;;;;;;;;6267313;22;20209;-85
2022/09/25 06:33:22;;;;;;;24.35;14.60;;;;;;;;;;6268749;22;20148;-85
2022/09/25 06:35:49;;;;;;;19.50;12.95;;;;;;;;;;6271046;22;20276;-85
2022/09/25 06:38:15;;;;;;;27.23;14.63;;;13.00;99.90;;;;;;6277604;22;20159;-85
2022/09/25 06:40:42;;;;;;;19.50;13.35;;;;;;;;;;6292924;22;20218;-85
2022/09/25 06:43:12;;;;;;;19.20;13.05;;;12.80;99.90;;;;;;6277790;22;20132;-85
2022/09/25 06:45:38;;;;;;;24.63;13.95;;;;;;;;;;6287152;22;20148;-84
2022/09/25 06:48:10;;;;;;;17.50;11.17;;;12.90;99.90;;;;;;6282250;22;20219;-83
2022/09/25 06:50:50;;;;;;;21.02;13.30;;;12.90;99.90;;;;;;6277175;22;20375;-84
2022/09/25 06:53:17;;;;;;;18.85;12.45;;;13.00;99.90;;;;;;6277246;22;20132;-83
2022/09/25 06:55:44;;;;;;;18.77;11.40;;;;;;;;;;6274623;22;20155;-84
2022/09/25 06:58:13;;;;;;;17.83;12.02;;;13.00;99.90;;;;;;6272351;22;20198;-83
2022/09/25 07:00:39;;;;;;;15.95;11.93;;;;;;;;;;6272905;22;20198;-84
2022/09/25 07:05:49;;;;;;;22.50;12.10;;;;;;;;;;6265854;22;20354;-83
2022/09/25 07:08:16;;;;;;;20.63;11.70;;;13.00;99.90;;;;;;6270009;22;20160;-84
2022/09/25 07:10:57;;;;;;;21.42;12.70;;;12.90;99.90;;;;;;6274943;22;20966;-83
2022/09/25 07:13:25;;;;;;;17.52;11.60;;;12.80;99.90;;;;;;6270732;22;20156;-84
2022/09/25 07:15:56;;;;;;;22.20;12.40;;;12.80;99.90;;;;;;6267243;22;20159;-83
2022/09/25 07:18:23;;;;;;;14.20;9.70;;;12.70;99.90;;;;;;6271915;22;20148;-83
2022/09/25 07:20:49;;;;;;;16.00;9.80;;;;;;;;;;6268743;22;20208;-83
2022/09/25 07:23:17;;;;;;;14.98;9.32;;;12.60;99.90;;;;;;6270708;22;20540;-84
2022/09/25 07:25:46;;;;;;;11.60;8.48;;;12.40;99.90;;;;;;6270559;22;20151;-83
2022/09/25 07:28:13;;;;;;;15.90;9.10;;;12.70;99.90;;;;;;6249647;22;20583;-85
2022/09/25 07:30:40;;;;;;;10.70;7.90;;;12.80;99.90;;;;;;6278556;22;20199;-86
2022/09/25 07:33:06;;;;;;;13.00;7.63;;;;;;;;;;6285755;22;20459;-89
2022/09/25 07:35:33;;;;;;;14.73;9.00;;;12.70;99.90;;;;;;6282616;22;20183;-87
2022/09/25 07:37:59;;;;;;;14.20;9.98;;;;;;;;;;6284697;22;20367;-87
2022/09/25 07:40:27;;;;;;;13.40;8.68;;;12.70;99.90;;;;;;6283405;22;20175;-85
2022/09/25 07:43:14;;;;;;;10.80;7.47;;;12.70;99.90;;;;;;6282080;22;20222;-87
2022/09/25 07:45:40;;;;;;;9.80;6.55;;;;;;;;;;6284385;22;20143;-87
2022/09/25 07:48:06;;;;;;;10.38;6.93;;;;;;;;;;6284431;22;20137;-87
2022/09/25 07:50:32;;;;;;;7.83;6.30;;;;;;;;;;6282608;22;20147;-87
2022/09/25 07:53:13;;;;;;;10.27;6.47;;;13.30;99.90;;;;;;6281795;22;20774;-86
2022/09/25 07:55:44;;;;;;;9.52;6.40;;;12.80;99.90;;;;;;6282815;22;20144;-86
2022/09/25 07:58:14;;;;;;;11.13;7.47;;;12.80;99.90;;;;;;6284330;22;20223;-87
2022/09/25 08:00:39;;;;;;;11.88;7.63;;;12.60;99.90;;;;;;6281580;22;20171;-87
2022/09/25 08:03:05;;;;;;;10.63;7.60;;;12.70;99.90;;;;;;6281733;22;20163;-86
2022/09/25 08:05:31;;;;;;;12.60;6.90;;;12.90;99.90;;;;;;6281759;22;20199;-86
2022/09/25 08:07:57;;;;;;;10.63;6.73;;;;;;;;;;6282902;22;20363;-86
2022/09/25 08:10:23;;;;;;;11.70;8.00;;;;;;;;;;6283496;22;20385;-87
2022/09/25 08:12:49;;;;;;;8.53;6.20;;;;;;;;;;6278795;22;20399;-87
2022/09/25 08:15:15;;;;;;;11.93;6.30;;;;;;;;;;6285153;22;20370;-87
2022/09/25 08:17:41;;;;;;;7.57;5.68;;;;;;;;;;6285059;22;20152;-86
2022/09/25 08:20:08;;;;;;;8.82;6.95;;;13.20;99.90;;;;;;6282635;22;20482;-88
2022/09/25 08:22:34;;;;;;;6.85;4.95;;;;;;;;;;6282644;22;20496;-89
2022/09/25 08:25:03;;;;;;;12.45;7.15;;;;;;;;;;6283243;22;20154;-90
2022/09/25 08:27:29;;;;;;;8.27;5.53;;;13.40;99.90;;;;;;6282052;22;20670;-90
2022/09/25 08:29:55;;;;;;;9.25;6.18;;;;;;;;;;6279853;22;20147;-88
2022/09/25 08:32:23;;;;;;;12.50;6.07;;;13.30;99.90;;;;;;6280218;22;20167;-88
2022/09/25 08:34:49;;;;;;;8.43;6.25;;;;;;;;;;6279631;22;20686;-88
2022/09/25 08:37:15;;;;;;;7.53;5.18;;;;;;;;;;6279010;22;20485;-86
2022/09/25 08:39:41;;;;;;;9.32;5.43;;;;;;;;;;6283557;22;20179;-89
2022/09/25 08:42:35;;;;;;;11.00;5.83;;;13.80;99.90;;;;;;6281288;22;20180;-88
2022/09/25 08:51:04;;;;;;;6.20;4.18;;;14.20;99.90;;;;;;6281362;22;20143;-87
2022/09/25 08:53:30;;;;;;;4.70;3.80;;;;;;;;;;6279728;22;20245;-86
2022/09/25 08:59:22;;;;;;;5.32;3.53;;;14.00;99.90;;;;;;6272022;22;20471;-86
2022/09/25 09:02:29;;;;;;;4.38;3.90;;;13.90;99.90;;;;;;6280802;22;20190;-88
2022/09/25 09:04:59;;;;;;;11.00;4.68;;;14.10;99.90;;;;;;6282911;22;20135;-85
2022/09/25 09:07:38;;;;;;;6.57;4.55;;;14.40;99.90;;;;;;6282924;22;20139;-86
2022/09/25 09:10:49;;;;;;;8.75;4.60;;;14.00;99.90;;;;;;6282171;22;20148;-87
2022/09/25 09:13:41;;;;;;;8.45;4.70;;;14.30;99.90;;;;;;6275119;22;20226;-86
2022/09/25 09:16:29;;;;;;;7.40;4.75;;;14.10;99.90;;;;;;6281592;22;20140;-87
2022/09/25 09:19:03;;;;;;;6.70;4.63;;;14.40;99.90;;;;;;6283316;22;20167;-85
2022/09/25 09:21:43;;;;;;;6.45;4.68;;;14.00;99.90;;;;;;6281810;22;20258;-85
2022/09/25 09:24:24;;;;;;;5.65;4.50;;;14.40;99.90;;;;;;6285272;22;20136;-86
2022/09/25 09:27:21;;;;;;;4.07;3.67;;;14.10;99.90;;;;;;6286466;22;20135;-85
2022/09/25 09:29:47;;;;;;;5.78;4.20;;;;;;;;;;6286255;22;20155;-87
2022/09/25 09:33:04;;;;;;;5.93;4.30;;;14.30;99.90;;;;;;6286664;22;20656;-85
2022/09/25 09:35:30;;;;;;;5.70;4.93;;;;;;;;;;6203373;22;20374;-86
2022/09/25 09:38:09;;;;;;;5.90;4.33;;;14.20;99.90;;;;;;6287526;22;20162;-86
2022/09/25 09:40:56;;;;;;;7.85;5.05;;;14.20;99.90;;;;;;6286149;22;20426;-88
2022/09/25 09:43:36;;;;;;;5.93;4.40;;;14.20;99.90;;;;;;6285960;22;20168;-85
2022/09/25 09:46:07;;;;;;;7.45;4.45;;;14.40;99.90;;;;;;6286326;22;20165;-85
2022/09/25 09:49:05;;;;;;;5.83;4.60;;;14.30;99.90;;;;;;6285659;22;20140;-85
2022/09/25 09:51:52;;;;;;;7.73;5.10;;;14.30;99.90;;;;;;6286308;22;20366;-88
2022/09/25 09:54:29;;;;;;;4.95;4.20;;;14.30;99.90;;;;;;6285226;22;20366;-87
2022/09/25 09:56:56;;;;;;;6.60;5.10;;;14.50;99.90;;;;;;6283267;22;20139;-86
2022/09/25 10:00:15;;;;;;;6.43;5.05;;;14.50;99.90;;;;;;6285229;22;20410;-85
2022/09/25 10:03:04;;;;;;;5.27;4.20;;;14.60;99.90;;;;;;6248425;22;20214;-87
2022/09/25 10:05:45;;;;;;;5.18;4.65;;;15.10;99.90;;;;;;6287343;22;20410;-87
2022/09/25 10:08:11;;;;;;;6.67;4.93;;;;;;;;;;6287596;22;20192;-88
2022/09/25 10:10:43;;;;;;;9.23;4.80;;;15.90;99.90;;;;;;6288279;22;20370;-89
2022/09/25 10:13:32;;;;;;;4.50;4.10;;;16.00;99.90;;;;;;6288629;22;20394;-88
2022/09/25 10:16:03;;;;;;;6.00;5.27;;;15.20;99.90;;;;;;6289106;22;20363;-86
2022/09/25 10:18:36;;;;;;;6.00;5.20;;;15.00;99.90;;;;;;6289003;22;20373;-87
2022/09/25 10:21:09;;;;;;;8.93;6.13;;;;;;;;;;6289299;22;20430;-88
2022/09/25 10:23:53;;;;;;;6.27;4.90;;;15.30;99.90;;;;;;6289719;22;20394;-87
2022/09/25 10:26:36;;;;;;;8.90;5.37;;;15.50;99.90;;;;;;6289563;22;20378;-86
2022/09/25 10:29:24;;;;;;;6.97;5.13;;;15.40;99.90;;;;;;6290098;22;20382;-86
2022/09/25 10:32:03;;;;;;;8.23;5.27;;;15.40;99.90;;;;;;6288932;22;20466;-87
2022/09/25 10:34:30;;;;;;;7.00;5.33;;;;;;;;;;6287375;22;20373;-87
2022/09/25 10:36:56;;;;;;;7.50;5.47;;;;;;;;;;6286290;22;20379;-88
2022/09/25 10:39:32;;;;;;;10.90;6.47;;;16.60;99.90;;;;;;6286457;22;20449;-87
2022/09/25 10:42:25;;;;;;;13.80;6.10;;;16.50;99.90;;;;;;6285795;22;20707;-88
2022/09/25 10:44:55;;;;;;;12.40;6.13;;;16.50;99.90;;;;;;6286560;22;20379;-87
2022/09/25 10:50:10;;;;;;;6.93;5.40;;;;;;;;;;6287881;22;20446;-87
2022/09/25 10:52:54;;;;;;;5.70;4.40;;;15.70;99.90;;;;;;6286035;22;20492;-87
2022/09/25 10:55:45;;;;;;;5.90;4.60;;;16.20;99.90;;;;;;6286192;22;20386;-87
2022/09/25 10:58:13;;;;;;;7.07;4.47;;;16.40;99.90;;;;;;6285976;22;20370;-87
2022/09/25 11:00:45;;;;;;;6.33;4.60;;;16.70;99.90;;;;;;6284081;22;20834;-88
2022/09/25 11:03:40;;;;;;;6.87;4.37;;;16.00;99.90;;;;;;6284067;22;20398;-86
2022/09/25 11:06:33;;;;;;;4.37;3.70;;;15.90;99.90;;;;;;6285164;22;20453;-88
2022/09/25 11:09:09;;;;;;;4.47;3.30;;;16.20;99.90;;;;;;6285301;22;20375;-89
2022/09/25 11:11:38;;;;;;;6.37;3.90;;;15.80;99.90;;;;;;6283787;22;20469;-88
2022/09/25 11:14:06;;;;;;;5.30;3.77;;;15.90;99.90;;;;;;6285677;22;20395;-87
2022/09/25 11:17:05;;;;;;;5.60;4.03;;;16.00;99.90;;;;;;6285644;22;20374;-87
2022/09/25 11:19:31;;;;;;;5.67;4.00;;;;;;;;;;6256137;22;20383;-88
2022/09/25 11:22:24;;;;;;;7.03;3.43;;;16.10;99.90;;;;;;6286764;22;20421;-88
2022/09/25 11:25:11;;;;;;;3.57;3.17;;;16.70;99.90;;;;;;6286572;22;20367;-89
2022/09/25 11:27:38;;;;;;;4.07;3.67;;;;;;;;;;6284666;22;20386;-89
2022/09/25 11:30:17;;;;;;;4.63;3.57;;;17.30;99.90;;;;;;6284211;22;20371;-93
2022/09/25 11:32:43;;;;;;;2.77;2.50;;;;;;;;;;6283111;22;20473;-90
2022/09/25 11:35:46;;;;;;;4.40;3.47;;;17.30;99.90;;;;;;6282649;22;20383;-87
2022/09/25 11:38:12;;;;;;;6.70;3.73;;;;;;;;;;6285501;22;20366;-88
2022/09/25 11:44:02;;;;;;;4.70;3.70;;;16.40;99.90;;;;;;6285105;22;20393;-89
2022/09/25 11:46:40;;;;;;;4.10;3.10;;;16.00;99.90;;;;;;6283627;22;20378;-88
2022/09/25 11:49:30;;;;;;;5.70;3.43;;;15.90;99.90;;;;;;6285202;22;20473;-88
2022/09/25 11:51:57;;;;;;;4.03;2.80;;;;;;;;;;6283818;22;20829;-90
2022/09/25 11:54:22;;;;;;;3.40;3.10;;;;;;;;;;6283907;22;20366;-89
2022/09/25 11:57:02;;;;;;;3.57;2.93;;;16.30;99.90;;;;;;6283286;22;20470;-90
2022/09/25 11:59:40;;;;;;;4.17;3.33;;;16.00;99.90;;;;;;6282493;22;20457;-88
2022/09/25 12:02:23;;;;;;;5.23;2.50;;;16.30;99.90;;;;;;6282426;22;20405;-90
2022/09/25 12:04:50;;;;;;;2.60;2.40;;;;;;;;;;6283638;22;20703;-89
2022/09/25 12:07:45;;;;;;;5.83;3.60;;;15.70;99.90;;;;;;6284344;22;20367;-88
2022/09/25 12:10:41;;;;;;;4.20;3.27;;;15.90;99.90;;;;;;6283674;22;20381;-88
2022/09/25 12:13:19;;;;;;;2.90;2.60;;;15.80;99.90;;;;;;6282634;22;20409;-88
2022/09/25 12:15:45;;;;;;;2.97;2.67;;;;;;;;;;6282559;22;20375;-89
2022/09/25 12:18:42;;;;;;;3.47;3.17;;;16.60;99.90;;;;;;6283672;22;20405;-89
2022/09/25 12:21:32;;;;;;;3.50;3.20;;;15.90;99.90;;;;;;6282838;22;20431;-86
2022/09/25 12:24:22;;;;;;;4.73;3.40;;;16.60;99.90;;;;;;6284720;22;20431;-86
2022/09/25 12:26:59;;;;;;;4.50;4.10;;;16.30;99.90;;;;;;6282956;22;20367;-88
2022/09/25 12:29:40;;;;;;;5.00;3.83;;;16.30;99.90;;;;;;6284760;22;20377;-88
2022/09/25 12:32:17;;;;;;;5.53;4.47;;;16.20;99.90;;;;;;6283410;22;20465;-87
2022/09/25 12:38:12;;;;;;;7.13;5.70;;;16.30;99.90;;;;;;6285876;22;20351;-89
2022/09/25 12:40:49;;;;;;;5.23;4.40;;;16.20;99.90;;;;;;6281694;22;20430;-88
2022/09/25 12:43:25;;;;;;;7.47;5.73;;;16.40;99.90;;;;;;6282774;22;20856;-87
2022/09/25 12:46:01;;;;;;;9.03;5.50;;;16.70;99.90;;;;;;6282300;22;20377;-87
2022/09/25 12:48:45;;;;;;;7.20;5.30;;;16.70;99.90;;;;;;6283587;22;20437;-86
2022/09/25 12:51:23;;;;;;;9.10;5.97;;;16.70;99.90;;;;;;6281356;22;20396;-87
2022/09/25 12:53:56;;;;;;;7.93;5.90;;;16.40;99.90;;;;;;6282437;22;20697;-87
2022/09/25 12:56:32;;;;;;;9.87;7.43;;;16.00;99.90;;;;;;6283277;22;20681;-88
2022/09/25 12:59:26;;;;;;;9.00;6.70;;;16.30;99.90;;;;;;6281223;22;20362;-87
2022/09/25 13:02:05;;;;;;;7.13;6.03;;;15.80;99.90;;;;;;6283823;22;20406;-89
2022/09/25 13:05:08;;;;;;;7.87;6.20;;;15.90;99.90;;;;;;6283883;22;20370;-89
2022/09/25 13:07:51;;;;;;;8.67;6.37;;;15.70;99.90;;;;;;6282557;22;20374;-87
2022/09/25 13:10:17;;;;;;;8.10;6.60;;;;;;;;;;6282497;22;20378;-88
2022/09/25 13:12:43;;;;;;;9.40;6.80;;;;;;;;;;6282882;22;20452;-88
2022/09/25 13:15:17;;;;;;;8.30;6.77;;;16.20;99.90;;;;;;6281593;22;20370;-88
2022/09/25 13:17:47;;;;;;;7.00;5.57;;;16.30;99.90;;;;;;6282303;22;20362;-89
2022/09/25 13:20:35;;;;;;;8.07;6.70;;;16.00;99.90;;;;;;6282038;22;20441;-89
2022/09/25 13:23:09;;;;;;;7.53;5.87;;;15.60;99.90;;;;;;6281879;22;20456;-87
2022/09/25 13:25:47;;;;;;;8.50;6.23;;;15.90;99.90;;;;;;6283813;22;20402;-88
2022/09/25 13:28:22;;;;;;;6.90;5.43;;;16.00;99.90;;;;;;6283149;22;21103;-88
2022/09/25 13:31:11;;;;;;;6.20;5.23;;;15.70;99.90;;;;;;6284279;22;20394;-87
2022/09/25 13:34:04;;;;;;;8.90;5.60;;;15.60;99.90;;;;;;6283543;22;20418;-88
2022/09/25 13:36:32;;;;;;;10.70;5.40;;;15.80;99.90;;;;;;6275853;22;20422;-88
2022/09/25 13:41:48;;;;;;;10.70;5.00;;;;;;;;;;6280169;22;20440;-88
2022/09/25 13:44:42;;;;;;;6.30;4.53;;;16.50;99.90;;;;;;6282268;22;20339;-87
2022/09/25 13:47:23;;;;;;;5.83;5.00;;;17.00;99.90;;;;;;6277149;22;20670;-87
2022/09/25 13:50:08;;;;;;;6.03;4.67;;;16.70;99.90;;;;;;6277464;22;20382;-87
2022/09/25 13:52:39;;;;;;;5.80;5.20;;;16.90;99.90;;;;;;6274439;22;20413;-86
2022/09/25 13:55:17;;;;;;;6.33;3.67;;;17.30;99.90;;;;;;6278435;22;20404;-86
2022/09/25 13:57:57;;;;;;;5.13;4.63;;;17.30;99.90;;;;;;6276384;22;20385;-87
2022/09/25 14:00:23;;;;;;;4.53;4.00;;;;;;;;;;6276257;22;20428;-87
2022/09/25 14:02:49;;;;;;;6.57;5.10;;;12.70;99.90;;;;;;6278028;22;20444;-88
2022/09/25 14:05:19;;;;;;;4.90;4.40;;;16.30;99.90;;;;;;6276822;22;20379;-88
2022/09/25 14:07:48;;;;;;;6.17;4.77;;;16.80;99.90;;;;;;6279572;22;20359;-86
2022/09/25 14:10:16;;;;;;;7.67;5.70;;;16.10;99.90;;;;;;6279921;22;20374;-88
2022/09/25 14:12:44;;;;;;;4.50;4.10;;;16.10;99.90;;;;;;6281339;22;20491;-88
2022/09/25 14:15:14;;;;;;;5.10;3.70;;;15.90;99.90;;;;;;6280944;22;21011;-89